Weather at Swarovski Heliport

Public forecast

Using degrees Celsius for public forecast. Weather courtesy of forecast.io.

Closest aviation weather report (METAR) to Swarovski Heliport

Closest report is Innsbruck Airport, 10.6 nm (19.7 km) W. Retrieved 2021/06/20 10:20 UTC (8 minutes ago):

LOWI 201020Z 07008KT 040V110 9999 FEW070 28/18 Q1012 NOSIG

Closest aviation forecast (TAF) to Swarovski Heliport

Closest forecast is Innsbruck Airport, 10.6 nm (19.7 km) W. Retrieved 2021/06/20 06:21 UTC (4 hours ago):

TAF LOWI 200515Z 2006/2106 27007KT 9999 FEW070 TX31/2013Z TN19/2104Z BECMG 2009/2011 10008KT TEMPO 2010/2020 12015G25KT FEW070CB PROB40 TEMPO 2014/2020 VRB25G45KT 4000 TSRAGR BKN030CB BECMG 2018/2020 27004KT SCT010